KFNB

Brenner Field Airport

Falls City, Nebraska, USA
METAR KFNB 170653Z AUTO 32004KT 10SM CLR M03/M04 A3029 RMK AO2 SLP265 T10331044 $
Observed Flight Rules
Dec-17 @ 06:53 UTC (35 minutes ago) Visual Flight Rules
Wind Visibility Clouds
320° at 4 knots 10 miles
  • Clear skies
Temperatures Readings
Current -3°C / 27°F
Dewpoint -4°C / 25°F
Humidity 93%
Altimeter 30.29" Hg
Pressure 1026.5 hPa
Elevation 300
METAR KFNB 170653Z AUTO 32004KT 10SM CLR M03/M04 A3029 RMK AO2 SLP265 T10331044 $
Observed Flight Rules
Dec-17 @ 06:53 UTC
(35 minutes ago)
VFR
Wind Visibility
320° at 4 knots 10 miles
Clouds
  • Clear skies
Temperature Dewpoint
-3°C / 27°F -4°C / 25°F
Humidity Altimeter Pressure
93% 30.29" Hg 1026.5 hPa